createdAt,value
2024-04-18T00:01:21.090Z,100.00
2024-04-18T00:03:48.190Z,100.00
2024-04-18T00:06:14.703Z,100.00
2024-04-18T00:08:41.680Z,100.00
2024-04-18T00:11:37.577Z,100.00
2024-04-18T00:14:11.607Z,100.00
2024-04-18T00:16:38.134Z,100.00
2024-04-18T00:19:17.693Z,100.00
2024-04-18T00:21:58.011Z,100.00
2024-04-18T00:24:30.765Z,100.00
2024-04-18T00:26:57.528Z,100.00
2024-04-18T00:29:37.311Z,100.00
2024-04-18T00:32:13.767Z,100.00
2024-04-18T00:35:00.444Z,100.00
2024-04-18T00:37:36.470Z,100.00
2024-04-18T00:40:03.398Z,100.00
2024-04-18T00:42:37.034Z,100.00
2024-04-18T00:45:07.285Z,100.00
2024-04-18T00:47:48.676Z,100.00
2024-04-18T00:50:17.108Z,100.00
2024-04-18T00:52:45.658Z,100.00
2024-04-18T00:55:29.245Z,100.00
2024-04-18T00:58:12.075Z,100.00
2024-04-18T01:00:42.755Z,100.00
2024-04-18T01:03:29.018Z,100.00
2024-04-18T01:06:08.788Z,100.00
2024-04-18T01:08:54.877Z,100.00
2024-04-18T01:11:31.698Z,100.00
2024-04-18T01:14:06.391Z,100.00
2024-04-18T01:16:52.891Z,100.00
2024-04-18T01:19:20.350Z,100.00
2024-04-18T01:21:47.356Z,100.00
2024-04-18T01:24:15.238Z,100.00
2024-04-18T01:26:42.243Z,100.00
2024-04-18T01:29:08.838Z,100.00
2024-04-18T01:31:35.480Z,100.00
2024-04-18T01:34:04.563Z,100.00
2024-04-18T01:36:31.192Z,100.00
2024-04-18T01:39:17.822Z,100.00
2024-04-18T01:41:44.496Z,100.00
2024-04-18T01:44:30.965Z,100.00
2024-04-18T01:47:27.061Z,100.00
2024-04-18T01:50:09.713Z,100.00
2024-04-18T01:52:38.595Z,100.00
2024-04-18T01:55:08.719Z,100.00
2024-04-18T01:57:37.141Z,100.00
2024-04-18T02:00:22.637Z,100.00
2024-04-18T02:02:49.246Z,100.00
2024-04-18T02:05:34.427Z,100.00
2024-04-18T02:08:16.539Z,100.00
2024-04-18T02:10:46.008Z,100.00
2024-04-18T02:13:33.548Z,100.00
2024-04-18T02:16:00.038Z,100.00
2024-04-18T02:18:26.602Z,100.00
2024-04-18T02:21:12.547Z,100.00
2024-04-18T02:23:51.606Z,100.00
2024-04-18T02:26:18.265Z,100.00
2024-04-18T02:28:44.971Z,100.00
2024-04-18T02:31:17.236Z,100.00
2024-04-18T02:33:49.831Z,100.00
2024-04-18T02:36:16.469Z,100.00
2024-04-18T02:38:42.930Z,100.00
2024-04-18T02:41:09.418Z,100.00
2024-04-18T02:43:52.715Z,100.00
2024-04-18T02:46:19.879Z,100.00
2024-04-18T02:49:05.017Z,100.00
2024-04-18T02:51:32.111Z,100.00
2024-04-18T02:54:14.084Z,100.00
2024-04-18T02:56:41.718Z,100.00
2024-04-18T02:59:10.786Z,100.00
2024-04-18T03:01:50.395Z,100.00
2024-04-18T03:04:17.263Z,100.00
2024-04-18T03:06:47.347Z,100.00
2024-04-18T03:09:15.463Z,100.00
2024-04-18T03:11:54.735Z,100.00
2024-04-18T03:14:40.932Z,100.00
2024-04-18T03:17:08.448Z,100.00
2024-04-18T03:19:53.687Z,100.00
2024-04-18T03:22:26.962Z,100.00
2024-04-18T03:25:01.130Z,100.00
2024-04-18T03:27:30.656Z,100.00
2024-04-18T03:29:57.567Z,100.00
2024-04-18T03:32:36.843Z,100.00
2024-04-18T03:35:04.672Z,100.00
2024-04-18T03:37:31.205Z,100.00
2024-04-18T03:39:57.761Z,100.00
2024-04-18T03:42:24.289Z,100.00
2024-04-18T03:44:56.772Z,100.00
2024-04-18T03:47:24.070Z,100.00
2024-04-18T03:50:08.947Z,100.00
2024-04-18T03:52:39.684Z,100.00
2024-04-18T03:55:06.385Z,100.00
2024-04-18T03:57:49.513Z,100.00
2024-04-18T04:00:16.333Z,100.00
2024-04-18T04:02:42.978Z,100.00
2024-04-18T04:05:09.479Z,100.00
2024-04-18T04:07:36.095Z,100.00
2024-04-18T04:10:02.721Z,100.00
2024-04-18T04:12:29.440Z,100.00
2024-04-18T05:37:54.044Z,100.00
2024-04-18T06:38:48.479Z,100.00
2024-04-18T06:41:14.937Z,100.00
2024-04-18T06:43:41.727Z,100.00
2024-04-18T06:46:08.582Z,100.00
2024-04-18T06:48:35.087Z,100.00
2024-04-18T06:51:01.571Z,100.00
2024-04-18T06:53:28.227Z,100.00
2024-04-18T06:55:54.745Z,100.00
2024-04-18T06:58:21.244Z,100.00
2024-04-18T07:00:47.869Z,100.00
2024-04-18T07:03:14.572Z,100.00
2024-04-18T07:05:51.476Z,100.00
2024-04-18T07:08:21.350Z,100.00
2024-04-18T07:10:48.168Z,100.00
2024-04-18T07:13:28.167Z,100.00
2024-04-18T07:15:59.121Z,100.00
2024-04-18T07:18:44.787Z,100.00
2024-04-18T07:21:11.671Z,100.00
2024-04-18T07:23:38.234Z,100.00
2024-04-18T07:26:05.454Z,100.00
2024-04-18T07:28:32.257Z,100.00
2024-04-18T07:30:58.803Z,100.00
2024-04-18T07:33:25.841Z,100.00
2024-04-18T07:35:56.642Z,100.00
2024-04-18T07:38:28.903Z,100.00
2024-04-18T07:40:55.554Z,100.00
2024-04-18T07:43:22.070Z,100.00
2024-04-18T07:45:48.889Z,100.00
2024-04-18T07:48:15.549Z,100.00
2024-04-18T07:50:42.413Z,100.00
2024-04-18T07:53:10.444Z,100.00
2024-04-18T07:55:38.245Z,100.00
2024-04-18T07:58:06.001Z,100.00
2024-04-18T08:00:35.581Z,100.00
2024-04-18T08:03:05.803Z,100.00
2024-04-18T08:05:36.036Z,100.00
2024-04-18T08:08:07.789Z,100.00
2024-04-18T08:10:45.959Z,100.00
2024-04-18T08:13:26.891Z,100.00
2024-04-18T08:18:24.559Z,100.00
2024-04-18T08:20:51.347Z,100.00
2024-04-18T08:23:19.989Z,100.00
2024-04-18T08:25:47.943Z,100.00
2024-04-18T08:28:14.761Z,100.00
2024-04-18T08:30:41.679Z,100.00
2024-04-18T08:33:08.653Z,100.00
2024-04-18T08:35:35.408Z,100.00
2024-04-18T08:38:02.298Z,100.00
2024-04-18T08:40:29.154Z,100.00
2024-04-18T08:42:55.778Z,100.00
2024-04-18T08:45:26.125Z,100.00
2024-04-18T08:47:55.057Z,100.00
2024-04-18T08:50:23.474Z,100.00
2024-04-18T08:52:52.552Z,100.00
2024-04-18T08:55:19.067Z,100.00
2024-04-18T08:57:52.799Z,100.00
2024-04-18T09:00:26.613Z,100.00
2024-04-18T09:02:53.524Z,100.00
2024-04-18T09:05:20.145Z,99.21
2024-04-18T09:07:46.947Z,97.46
2024-04-18T09:10:14.325Z,97.31
2024-04-18T09:12:40.951Z,96.14
2024-04-18T09:15:07.839Z,93.73
2024-04-18T09:17:34.851Z,92.82
2024-04-18T09:20:01.575Z,93.38
2024-04-18T09:22:28.150Z,92.03
2024-04-18T09:24:54.983Z,91.37
2024-04-18T09:27:21.457Z,90.86
2024-04-18T09:29:48.169Z,88.31
2024-04-18T09:32:15.296Z,87.47
2024-04-18T09:34:43.709Z,86.87
2024-04-18T09:37:12.546Z,86.96
2024-04-18T09:39:43.465Z,87.06
2024-04-18T09:42:19.802Z,89.58
2024-04-18T09:44:53.786Z,89.00
2024-04-18T09:47:24.124Z,88.19
2024-04-18T09:49:54.066Z,85.31
2024-04-18T09:52:22.138Z,82.39
2024-04-18T09:54:50.693Z,82.05
2024-04-18T09:57:17.592Z,80.83
2024-04-18T09:59:46.082Z,79.05
2024-04-18T10:02:13.636Z,79.49
2024-04-18T10:04:41.601Z,80.37
2024-04-18T10:07:11.500Z,81.47
2024-04-18T10:09:40.024Z,81.75
2024-04-18T10:12:09.320Z,81.07
2024-04-18T10:14:39.085Z,81.22
2024-04-18T10:17:06.134Z,80.22
2024-04-18T10:19:32.856Z,80.79
2024-04-18T10:22:11.624Z,81.07
2024-04-18T10:24:51.539Z,82.20
2024-04-18T10:27:18.354Z,83.22
2024-04-18T10:29:57.735Z,81.28
2024-04-18T10:32:29.812Z,81.13
2024-04-18T10:34:59.418Z,80.35
2024-04-18T10:37:25.891Z,80.80
2024-04-18T10:39:53.437Z,77.77
2024-04-18T10:42:21.028Z,75.47
2024-04-18T10:44:48.571Z,74.38
2024-04-18T10:47:19.191Z,72.42
2024-04-18T10:49:46.141Z,71.08
2024-04-18T10:52:17.254Z,70.42
2024-04-18T10:54:45.016Z,68.65
2024-04-18T10:57:12.494Z,68.35
2024-04-18T10:59:39.777Z,68.95
2024-04-18T11:02:08.088Z,68.27
2024-04-18T11:04:35.304Z,68.00
2024-04-18T11:07:02.570Z,67.88
2024-04-18T11:09:29.369Z,67.97
2024-04-18T11:11:56.335Z,69.33
2024-04-18T11:14:23.158Z,69.67
2024-04-18T11:16:57.554Z,70.61
2024-04-18T11:19:25.398Z,71.21
2024-04-18T11:21:52.691Z,72.71
2024-04-18T11:24:28.290Z,73.81
2024-04-18T11:26:55.001Z,74.45
2024-04-18T11:29:26.319Z,75.28
2024-04-18T11:31:53.325Z,75.92
2024-04-18T11:34:19.935Z,76.61
2024-04-18T11:36:47.582Z,77.47
2024-04-18T11:39:14.357Z,78.08
2024-04-18T11:41:41.215Z,77.47
2024-04-18T11:44:08.358Z,77.02
2024-04-18T11:46:35.175Z,77.47
2024-04-18T11:49:01.814Z,78.23
2024-04-18T11:51:28.719Z,78.56
2024-04-18T11:53:55.359Z,78.90
2024-04-18T11:56:34.268Z,78.87
2024-04-18T11:59:00.999Z,78.11
2024-04-18T12:01:33.839Z,76.76
2024-04-18T12:04:18.893Z,76.68
2024-04-18T12:06:45.938Z,76.66
2024-04-18T12:09:27.283Z,76.76
2024-04-18T12:11:58.312Z,74.57
2024-04-18T12:14:24.830Z,73.91
2024-04-18T12:16:56.368Z,74.47
2024-04-18T12:19:52.259Z,74.17
2024-04-18T12:22:36.742Z,74.81
2024-04-18T12:25:16.999Z,74.57
2024-04-18T12:27:44.202Z,73.89
2024-04-18T12:30:30.716Z,73.19
2024-04-18T12:33:16.590Z,73.05
2024-04-18T12:35:44.519Z,72.76
2024-04-18T12:38:11.352Z,72.39
2024-04-18T12:40:45.001Z,72.08
2024-04-18T12:43:12.495Z,71.84
2024-04-18T12:46:06.151Z,71.90
2024-04-18T12:48:50.967Z,70.94
2024-04-18T12:51:18.454Z,69.99
2024-04-18T12:53:45.288Z,71.12
2024-04-18T12:56:12.247Z,70.73
2024-04-18T12:58:42.782Z,69.67
2024-04-18T13:01:10.647Z,67.84
2024-04-18T13:03:41.148Z,65.50
2024-04-18T13:06:27.460Z,61.88
2024-04-18T13:08:55.918Z,59.28
2024-04-18T13:11:41.048Z,56.59
2024-04-18T13:14:08.486Z,54.79
2024-04-18T13:16:35.629Z,54.84
2024-04-18T13:19:10.135Z,54.18
2024-04-18T13:21:37.232Z,53.75
2024-04-18T13:24:04.166Z,53.92
2024-04-18T13:26:51.619Z,54.95
2024-04-18T13:29:19.430Z,56.44
2024-04-18T13:31:47.247Z,56.64
2024-04-18T13:34:20.435Z,56.94
2024-04-18T13:36:47.553Z,56.60
2024-04-18T13:39:14.791Z,57.45
2024-04-18T13:41:41.597Z,58.27
2024-04-18T13:44:17.793Z,60.07
2024-04-18T13:46:45.353Z,61.47
2024-04-18T13:49:33.027Z,63.24
2024-04-18T13:52:00.134Z,64.85
2024-04-18T13:54:33.793Z,65.72
2024-04-18T13:57:01.065Z,66.63
2024-04-18T13:59:41.166Z,67.76
2024-04-18T14:02:27.477Z,68.57
2024-04-18T14:05:22.351Z,69.94
2024-04-18T14:08:04.577Z,70.69
2024-04-18T14:10:31.433Z,71.02
2024-04-18T14:13:16.633Z,70.90
2024-04-18T14:15:52.347Z,70.77
2024-04-18T14:18:38.280Z,70.12
2024-04-18T14:21:05.287Z,68.76
2024-04-18T14:23:31.782Z,68.32
2024-04-18T14:26:00.030Z,66.92
2024-04-18T14:28:31.725Z,67.45
2024-04-18T14:31:18.554Z,66.92
2024-04-18T14:33:48.026Z,65.92
2024-04-18T14:36:14.974Z,64.74
2024-04-18T14:38:41.674Z,64.22
2024-04-18T14:41:12.162Z,61.83
2024-04-18T14:43:39.454Z,59.50
2024-04-18T14:46:06.456Z,56.93
2024-04-18T14:48:45.587Z,55.54
2024-04-18T14:51:22.659Z,53.83
2024-04-18T14:53:49.444Z,53.24
2024-04-18T14:56:16.595Z,52.43
2024-04-18T14:59:01.422Z,54.04
2024-04-18T15:01:28.703Z,54.97
2024-04-18T15:03:55.341Z,55.57
2024-04-18T15:06:22.269Z,55.23
2024-04-18T15:09:18.254Z,54.77
2024-04-18T15:11:57.223Z,54.88
2024-04-18T15:14:37.085Z,54.83
2024-04-18T15:17:08.184Z,54.76
2024-04-18T15:19:35.724Z,54.95
2024-04-18T15:22:21.431Z,54.61
2024-04-18T15:24:48.056Z,55.14
2024-04-18T15:27:14.868Z,55.49
2024-04-18T15:29:41.796Z,56.16
2024-04-18T15:32:21.650Z,57.26
2024-04-18T15:34:49.225Z,57.43
2024-04-18T15:37:35.081Z,55.82
2024-04-18T15:40:02.199Z,54.54
2024-04-18T15:42:28.813Z,52.46
2024-04-18T15:44:55.329Z,50.69
2024-04-18T15:47:33.011Z,50.48
2024-04-18T15:50:17.976Z,51.50
2024-04-18T15:52:45.539Z,52.84
2024-04-18T15:55:30.171Z,54.38
2024-04-18T15:58:17.610Z,55.67
2024-04-18T16:00:44.298Z,57.48
2024-04-18T16:03:31.783Z,58.93
2024-04-18T16:06:19.877Z,60.18
2024-04-18T16:09:06.680Z,61.24
2024-04-18T16:11:39.592Z,62.35
2024-04-18T16:14:06.127Z,63.05
2024-04-18T16:16:32.696Z,63.47
2024-04-18T16:19:08.365Z,64.09
2024-04-18T16:21:35.045Z,64.52
2024-04-18T16:24:15.259Z,65.23
2024-04-18T16:26:41.940Z,65.40
2024-04-18T16:29:08.464Z,65.57
2024-04-18T16:31:40.850Z,66.14
2024-04-18T16:34:16.788Z,66.35
2024-04-18T16:36:44.922Z,66.54
2024-04-18T16:39:14.109Z,67.11
2024-04-18T16:41:41.331Z,67.30
2024-04-18T16:44:08.091Z,67.18
2024-04-18T16:46:34.573Z,67.03
2024-04-18T16:49:01.256Z,66.80
2024-04-18T16:51:27.939Z,66.46
2024-04-18T16:53:55.971Z,66.13
2024-04-18T16:56:22.899Z,66.03
2024-04-18T16:58:53.365Z,66.31
2024-04-18T17:01:20.629Z,66.91
2024-04-18T17:03:47.528Z,66.91
2024-04-18T17:06:41.863Z,67.56
2024-04-18T17:09:16.239Z,67.99
2024-04-18T17:11:43.075Z,67.90
2024-04-18T17:14:28.702Z,68.27
2024-04-18T17:16:55.142Z,68.43
2024-04-18T17:19:21.878Z,68.68
2024-04-18T17:21:49.147Z,69.39
2024-04-18T17:24:15.688Z,70.22
2024-04-18T17:27:01.334Z,70.53
2024-04-18T17:29:28.233Z,70.65
2024-04-18T17:31:54.917Z,71.31
2024-04-18T17:34:21.881Z,71.84
2024-04-18T17:36:48.551Z,72.46
2024-04-18T17:39:35.935Z,73.36
2024-04-18T17:42:03.014Z,74.02
2024-04-18T17:44:50.062Z,74.59
2024-04-18T17:47:27.665Z,75.49
2024-04-18T17:49:54.627Z,76.02
2024-04-18T17:52:24.470Z,76.78
2024-04-18T17:54:51.098Z,77.49
2024-04-18T17:57:17.596Z,78.25
2024-04-18T18:00:05.756Z,78.78
2024-04-18T18:02:38.949Z,79.02
2024-04-18T18:05:05.546Z,79.53
2024-04-18T18:07:32.119Z,79.68
2024-04-18T18:09:58.767Z,80.13
2024-04-18T18:12:25.428Z,80.41
2024-04-18T18:14:52.039Z,80.94
2024-04-18T18:17:18.615Z,81.07
2024-04-18T18:19:45.324Z,82.90
2024-04-18T18:22:11.957Z,83.76
2024-04-18T18:24:38.851Z,84.00
2024-04-18T18:27:05.514Z,85.22
2024-04-18T18:29:32.447Z,85.45
2024-04-18T18:32:08.385Z,86.62
2024-04-18T18:34:35.412Z,87.07
2024-04-18T18:37:01.973Z,86.97
2024-04-18T18:39:28.640Z,87.86
2024-04-18T18:41:55.326Z,88.34
2024-04-18T18:44:22.118Z,89.44
2024-04-18T18:46:49.362Z,90.02
2024-04-18T18:49:16.294Z,91.06
2024-04-18T18:51:43.359Z,91.58
2024-04-18T18:54:10.832Z,92.53
2024-04-18T18:56:37.490Z,93.31
2024-04-18T18:59:22.770Z,94.38
2024-04-18T19:01:49.296Z,95.04
2024-04-18T19:04:22.652Z,95.69
2024-04-18T19:06:52.346Z,95.98
2024-04-18T19:09:19.760Z,96.53
2024-04-18T19:11:46.586Z,97.34
2024-04-18T19:14:13.957Z,97.91
2024-04-18T19:17:03.917Z,98.38
2024-04-18T19:19:31.122Z,98.74
2024-04-18T19:21:57.739Z,98.56
2024-04-18T19:24:27.133Z,98.92
2024-04-18T19:26:57.978Z,99.11
2024-04-18T19:29:32.113Z,99.10
2024-04-18T19:32:06.703Z,98.88
2024-04-18T19:34:33.320Z,99.06
2024-04-18T19:37:00.187Z,99.28
2024-04-18T19:39:27.200Z,99.43
2024-04-18T19:41:56.981Z,99.61
2024-04-18T19:44:23.552Z,99.77
2024-04-18T19:46:51.380Z,100.00
2024-04-18T19:49:18.090Z,100.00
2024-04-18T19:51:56.361Z,100.00
2024-04-18T19:54:22.948Z,100.00
2024-04-18T19:56:49.810Z,100.00
2024-04-18T19:59:16.634Z,100.00
2024-04-18T20:01:43.160Z,100.00
2024-04-18T20:04:10.026Z,100.00
2024-04-18T20:06:36.757Z,100.00
2024-04-18T20:09:03.412Z,100.00
2024-04-18T20:11:30.114Z,100.00
2024-04-18T20:13:57.106Z,100.00
2024-04-18T20:16:23.646Z,100.00
2024-04-18T20:19:14.403Z,100.00
2024-04-18T20:21:43.133Z,100.00
2024-04-18T20:24:11.041Z,100.00
2024-04-18T20:26:57.966Z,100.00
2024-04-18T20:29:43.472Z,100.00
2024-04-18T20:32:23.156Z,100.00
2024-04-18T20:34:51.522Z,100.00
2024-04-18T20:37:18.205Z,100.00
2024-04-18T20:39:45.733Z,100.00
2024-04-18T20:42:13.203Z,100.00
2024-04-18T20:44:59.506Z,100.00
2024-04-18T20:47:26.433Z,100.00
2024-04-18T20:49:52.978Z,100.00
2024-04-18T20:52:19.700Z,100.00
2024-04-18T20:54:52.096Z,100.00
2024-04-18T20:57:18.787Z,100.00
2024-04-18T20:59:45.525Z,100.00
2024-04-18T21:02:12.033Z,100.00
2024-04-18T21:04:38.564Z,100.00
2024-04-18T21:07:05.101Z,100.00
2024-04-18T21:09:31.793Z,100.00
2024-04-18T21:11:58.311Z,100.00
2024-04-18T21:14:24.958Z,100.00
2024-04-18T21:16:51.505Z,100.00
2024-04-18T21:19:21.474Z,100.00
2024-04-18T21:21:48.628Z,100.00
2024-04-18T21:24:15.147Z,100.00
2024-04-18T21:26:48.234Z,100.00
2024-04-18T21:29:15.482Z,100.00
2024-04-18T21:31:42.076Z,100.00
2024-04-18T21:34:10.832Z,100.00
2024-04-18T21:36:37.565Z,100.00
2024-04-18T21:39:04.434Z,100.00
2024-04-18T21:41:30.948Z,100.00
2024-04-18T21:43:57.574Z,100.00
2024-04-18T21:46:24.906Z,100.00
2024-04-18T21:48:51.526Z,100.00
2024-04-18T21:51:18.426Z,100.00
2024-04-18T21:53:45.048Z,100.00
2024-04-18T21:56:11.526Z,100.00
2024-04-18T21:58:38.130Z,100.00
2024-04-18T22:01:04.766Z,100.00
2024-04-18T22:03:31.532Z,100.00
2024-04-18T22:05:58.195Z,100.00
2024-04-18T22:08:25.052Z,100.00
2024-04-18T22:10:53.109Z,100.00
2024-04-18T22:13:19.626Z,100.00
2024-04-18T22:15:46.185Z,100.00
2024-04-18T22:18:13.013Z,100.00
2024-04-18T22:20:39.856Z,100.00
2024-04-18T22:23:15.126Z,100.00
2024-04-18T22:25:43.245Z,100.00
2024-04-18T22:28:09.833Z,100.00
2024-04-18T22:30:36.327Z,100.00
2024-04-18T22:33:03.425Z,100.00
2024-04-18T22:35:29.994Z,100.00
2024-04-18T22:37:56.472Z,100.00
2024-04-18T22:40:23.421Z,100.00
2024-04-18T22:42:49.976Z,100.00
2024-04-18T22:45:16.733Z,100.00
2024-04-18T22:47:43.352Z,100.00
2024-04-18T22:50:10.057Z,100.00
2024-04-18T22:52:36.509Z,100.00
2024-04-18T22:55:03.352Z,100.00
2024-04-18T22:57:30.098Z,100.00
2024-04-18T22:59:56.596Z,100.00
2024-04-18T23:02:23.464Z,100.00
2024-04-18T23:04:49.958Z,100.00
2024-04-18T23:07:16.448Z,100.00
2024-04-18T23:09:42.958Z,100.00
2024-04-18T23:12:09.504Z,100.00
2024-04-18T23:14:36.114Z,100.00
2024-04-18T23:17:02.808Z,100.00
2024-04-18T23:19:29.381Z,100.00
2024-04-18T23:21:55.882Z,100.00
2024-04-18T23:24:37.635Z,100.00
2024-04-18T23:27:04.686Z,100.00
2024-04-18T23:29:31.831Z,100.00
2024-04-18T23:31:58.714Z,100.00
2024-04-18T23:34:25.453Z,100.00
2024-04-18T23:37:01.278Z,100.00
2024-04-18T23:39:27.883Z,100.00
2024-04-18T23:41:54.642Z,100.00
2024-04-18T23:44:21.226Z,100.00
2024-04-18T23:46:47.811Z,100.00
2024-04-18T23:49:14.490Z,100.00
2024-04-18T23:51:41.739Z,100.00
2024-04-18T23:54:08.833Z,100.00
2024-04-18T23:56:35.317Z,100.00
2024-04-18T23:59:02.134Z,100.00
